sensor_id;sensor_type;location;lat;lon;timestamp;P1;durP1;ratioP1;P2;durP2;ratioP2
2338;SDS011;1180;51.438;6.978;2023-04-06T00:00:48;6.47;;;5.87;;
2338;SDS011;1180;51.438;6.978;2023-04-06T00:03:15;8.40;;;6.67;;
2338;SDS011;1180;51.438;6.978;2023-04-06T00:05:40;8.40;;;5.97;;
2338;SDS011;1180;51.438;6.978;2023-04-06T00:08:06;7.67;;;5.40;;
2338;SDS011;1180;51.438;6.978;2023-04-06T00:10:32;7.27;;;6.40;;
2338;SDS011;1180;51.438;6.978;2023-04-06T00:12:58;12.10;;;5.87;;
2338;SDS011;1180;51.438;6.978;2023-04-06T00:15:24;8.40;;;6.17;;
2338;SDS011;1180;51.438;6.978;2023-04-06T00:17:50;8.47;;;6.20;;
2338;SDS011;1180;51.438;6.978;2023-04-06T00:20:16;8.13;;;7.00;;
2338;SDS011;1180;51.438;6.978;2023-04-06T00:22:41;7.53;;;6.60;;
2338;SDS011;1180;51.438;6.978;2023-04-06T00:25:09;5.87;;;5.27;;
2338;SDS011;1180;51.438;6.978;2023-04-06T00:27:35;7.87;;;5.97;;
2338;SDS011;1180;51.438;6.978;2023-04-06T00:30:02;7.53;;;6.03;;
2338;SDS011;1180;51.438;6.978;2023-04-06T00:32:28;11.33;;;6.57;;
2338;SDS011;1180;51.438;6.978;2023-04-06T00:34:53;7.97;;;6.73;;
2338;SDS011;1180;51.438;6.978;2023-04-06T00:37:18;9.83;;;6.27;;
2338;SDS011;1180;51.438;6.978;2023-04-06T00:39:44;10.50;;;7.87;;
2338;SDS011;1180;51.438;6.978;2023-04-06T00:42:13;11.73;;;7.17;;
2338;SDS011;1180;51.438;6.978;2023-04-06T00:44:42;10.20;;;6.50;;
2338;SDS011;1180;51.438;6.978;2023-04-06T00:47:07;9.03;;;6.40;;
2338;SDS011;1180;51.438;6.978;2023-04-06T00:49:33;9.10;;;6.83;;
2338;SDS011;1180;51.438;6.978;2023-04-06T00:51:59;9.60;;;6.90;;
2338;SDS011;1180;51.438;6.978;2023-04-06T00:54:26;9.70;;;6.87;;
2338;SDS011;1180;51.438;6.978;2023-04-06T00:56:52;9.90;;;7.50;;
2338;SDS011;1180;51.438;6.978;2023-04-06T00:59:17;8.33;;;7.20;;
2338;SDS011;1180;51.438;6.978;2023-04-06T01:01:43;7.27;;;6.50;;
2338;SDS011;1180;51.438;6.978;2023-04-06T01:04:08;10.90;;;7.87;;
2338;SDS011;1180;51.438;6.978;2023-04-06T01:06:34;10.37;;;7.50;;
2338;SDS011;1180;51.438;6.978;2023-04-06T01:08:59;8.63;;;6.93;;
2338;SDS011;1180;51.438;6.978;2023-04-06T01:11:25;7.30;;;6.53;;
2338;SDS011;1180;51.438;6.978;2023-04-06T01:13:51;8.77;;;6.90;;
2338;SDS011;1180;51.438;6.978;2023-04-06T01:16:16;10.80;;;7.40;;
2338;SDS011;1180;51.438;6.978;2023-04-06T01:18:42;11.50;;;8.43;;
2338;SDS011;1180;51.438;6.978;2023-04-06T01:21:08;8.87;;;6.70;;
2338;SDS011;1180;51.438;6.978;2023-04-06T01:23:35;10.97;;;7.03;;
2338;SDS011;1180;51.438;6.978;2023-04-06T01:26:00;8.53;;;6.80;;
2338;SDS011;1180;51.438;6.978;2023-04-06T01:28:25;8.70;;;7.60;;
2338;SDS011;1180;51.438;6.978;2023-04-06T01:30:51;10.33;;;7.47;;
2338;SDS011;1180;51.438;6.978;2023-04-06T01:33:16;9.00;;;7.53;;
2338;SDS011;1180;51.438;6.978;2023-04-06T01:35:42;10.83;;;9.07;;
2338;SDS011;1180;51.438;6.978;2023-04-06T01:38:07;9.70;;;7.43;;
2338;SDS011;1180;51.438;6.978;2023-04-06T01:40:32;9.87;;;7.37;;
2338;SDS011;1180;51.438;6.978;2023-04-06T01:42:58;13.27;;;7.97;;
2338;SDS011;1180;51.438;6.978;2023-04-06T01:45:23;11.87;;;8.87;;
2338;SDS011;1180;51.438;6.978;2023-04-06T01:47:49;12.30;;;8.30;;
2338;SDS011;1180;51.438;6.978;2023-04-06T01:50:14;15.10;;;9.33;;
2338;SDS011;1180;51.438;6.978;2023-04-06T01:52:39;14.20;;;7.93;;
2338;SDS011;1180;51.438;6.978;2023-04-06T01:55:06;10.37;;;8.03;;
2338;SDS011;1180;51.438;6.978;2023-04-06T01:57:31;13.23;;;8.40;;
2338;SDS011;1180;51.438;6.978;2023-04-06T01:59:57;10.60;;;8.50;;
2338;SDS011;1180;51.438;6.978;2023-04-06T02:02:22;12.50;;;9.10;;
2338;SDS011;1180;51.438;6.978;2023-04-06T02:04:48;11.90;;;9.20;;
2338;SDS011;1180;51.438;6.978;2023-04-06T02:07:13;11.00;;;8.03;;
2338;SDS011;1180;51.438;6.978;2023-04-06T02:09:39;16.00;;;9.00;;
2338;SDS011;1180;51.438;6.978;2023-04-06T02:12:04;12.00;;;9.30;;
2338;SDS011;1180;51.438;6.978;2023-04-06T02:14:30;12.27;;;8.63;;
2338;SDS011;1180;51.438;6.978;2023-04-06T02:16:55;9.77;;;8.07;;
2338;SDS011;1180;51.438;6.978;2023-04-06T02:19:21;14.07;;;10.70;;
2338;SDS011;1180;51.438;6.978;2023-04-06T02:21:47;13.60;;;10.43;;
2338;SDS011;1180;51.438;6.978;2023-04-06T02:24:12;12.93;;;8.80;;
2338;SDS011;1180;51.438;6.978;2023-04-06T02:26:38;11.30;;;8.90;;
2338;SDS011;1180;51.438;6.978;2023-04-06T02:29:03;13.70;;;10.23;;
2338;SDS011;1180;51.438;6.978;2023-04-06T02:31:29;12.50;;;9.57;;
2338;SDS011;1180;51.438;6.978;2023-04-06T02:33:54;11.50;;;8.57;;
2338;SDS011;1180;51.438;6.978;2023-04-06T02:36:20;10.60;;;8.50;;
2338;SDS011;1180;51.438;6.978;2023-04-06T02:38:45;9.50;;;8.50;;
2338;SDS011;1180;51.438;6.978;2023-04-06T02:41:10;17.90;;;9.40;;
2338;SDS011;1180;51.438;6.978;2023-04-06T02:43:36;10.50;;;8.90;;
2338;SDS011;1180;51.438;6.978;2023-04-06T02:46:01;13.50;;;8.10;;
2338;SDS011;1180;51.438;6.978;2023-04-06T02:48:27;13.10;;;9.43;;
2338;SDS011;1180;51.438;6.978;2023-04-06T02:50:52;10.73;;;8.20;;
2338;SDS011;1180;51.438;6.978;2023-04-06T02:53:18;10.57;;;7.70;;
2338;SDS011;1180;51.438;6.978;2023-04-06T02:55:43;9.60;;;7.93;;
2338;SDS011;1180;51.438;6.978;2023-04-06T02:58:08;11.40;;;8.10;;
2338;SDS011;1180;51.438;6.978;2023-04-06T03:00:34;11.07;;;8.17;;
2338;SDS011;1180;51.438;6.978;2023-04-06T03:02:59;8.17;;;7.10;;
2338;SDS011;1180;51.438;6.978;2023-04-06T03:05:25;13.23;;;8.67;;
2338;SDS011;1180;51.438;6.978;2023-04-06T03:07:50;9.70;;;8.67;;
2338;SDS011;1180;51.438;6.978;2023-04-06T03:10:15;10.90;;;8.53;;
2338;SDS011;1180;51.438;6.978;2023-04-06T03:12:41;11.77;;;8.37;;
2338;SDS011;1180;51.438;6.978;2023-04-06T03:15:07;8.83;;;7.70;;
2338;SDS011;1180;51.438;6.978;2023-04-06T03:17:32;8.97;;;6.70;;
2338;SDS011;1180;51.438;6.978;2023-04-06T03:19:58;11.73;;;7.90;;
2338;SDS011;1180;51.438;6.978;2023-04-06T03:22:23;15.20;;;9.03;;
2338;SDS011;1180;51.438;6.978;2023-04-06T03:24:48;10.53;;;8.50;;
2338;SDS011;1180;51.438;6.978;2023-04-06T03:27:14;11.17;;;8.20;;
2338;SDS011;1180;51.438;6.978;2023-04-06T03:29:39;12.17;;;6.93;;
2338;SDS011;1180;51.438;6.978;2023-04-06T03:32:05;11.90;;;8.57;;
2338;SDS011;1180;51.438;6.978;2023-04-06T03:34:30;13.37;;;7.83;;
2338;SDS011;1180;51.438;6.978;2023-04-06T03:36:56;9.40;;;7.40;;
2338;SDS011;1180;51.438;6.978;2023-04-06T03:39:21;14.37;;;8.03;;
2338;SDS011;1180;51.438;6.978;2023-04-06T03:41:46;11.30;;;8.13;;
2338;SDS011;1180;51.438;6.978;2023-04-06T03:44:12;16.20;;;8.57;;
2338;SDS011;1180;51.438;6.978;2023-04-06T03:46:37;9.33;;;7.50;;
2338;SDS011;1180;51.438;6.978;2023-04-06T03:49:02;10.57;;;7.87;;
2338;SDS011;1180;51.438;6.978;2023-04-06T03:51:28;14.83;;;8.80;;
2338;SDS011;1180;51.438;6.978;2023-04-06T03:53:53;11.93;;;8.00;;
2338;SDS011;1180;51.438;6.978;2023-04-06T03:56:18;19.87;;;11.57;;
2338;SDS011;1180;51.438;6.978;2023-04-06T03:58:45;10.57;;;7.93;;
2338;SDS011;1180;51.438;6.978;2023-04-06T04:01:10;10.37;;;8.03;;
2338;SDS011;1180;51.438;6.978;2023-04-06T04:03:36;10.23;;;8.33;;
2338;SDS011;1180;51.438;6.978;2023-04-06T04:06:01;9.30;;;6.60;;
2338;SDS011;1180;51.438;6.978;2023-04-06T04:08:27;11.60;;;7.80;;
2338;SDS011;1180;51.438;6.978;2023-04-06T04:10:52;10.00;;;7.37;;
2338;SDS011;1180;51.438;6.978;2023-04-06T04:13:19;8.97;;;7.57;;
2338;SDS011;1180;51.438;6.978;2023-04-06T04:15:44;11.67;;;7.93;;
2338;SDS011;1180;51.438;6.978;2023-04-06T04:18:10;10.33;;;7.20;;
2338;SDS011;1180;51.438;6.978;2023-04-06T04:20:35;9.77;;;7.63;;
2338;SDS011;1180;51.438;6.978;2023-04-06T04:23:00;11.43;;;7.93;;
2338;SDS011;1180;51.438;6.978;2023-04-06T04:25:26;10.20;;;7.10;;
2338;SDS011;1180;51.438;6.978;2023-04-06T04:27:51;10.53;;;7.63;;
2338;SDS011;1180;51.438;6.978;2023-04-06T04:30:16;11.20;;;7.27;;
2338;SDS011;1180;51.438;6.978;2023-04-06T04:32:42;9.40;;;7.90;;
2338;SDS011;1180;51.438;6.978;2023-04-06T04:35:07;8.30;;;7.20;;
2338;SDS011;1180;51.438;6.978;2023-04-06T04:37:33;8.60;;;6.03;;
2338;SDS011;1180;51.438;6.978;2023-04-06T04:40:00;10.17;;;7.30;;
2338;SDS011;1180;51.438;6.978;2023-04-06T04:42:25;10.37;;;6.70;;
2338;SDS011;1180;51.438;6.978;2023-04-06T04:44:51;10.13;;;7.40;;
2338;SDS011;1180;51.438;6.978;2023-04-06T04:47:16;8.80;;;7.67;;
2338;SDS011;1180;51.438;6.978;2023-04-06T04:49:41;13.97;;;7.30;;
2338;SDS011;1180;51.438;6.978;2023-04-06T04:52:07;9.90;;;7.40;;
2338;SDS011;1180;51.438;6.978;2023-04-06T04:54:32;11.70;;;7.47;;
2338;SDS011;1180;51.438;6.978;2023-04-06T04:56:58;7.77;;;6.47;;
2338;SDS011;1180;51.438;6.978;2023-04-06T04:59:23;10.07;;;7.17;;
2338;SDS011;1180;51.438;6.978;2023-04-06T05:01:48;11.30;;;7.40;;
2338;SDS011;1180;51.438;6.978;2023-04-06T05:04:14;9.53;;;6.97;;
2338;SDS011;1180;51.438;6.978;2023-04-06T05:06:39;8.10;;;6.43;;
2338;SDS011;1180;51.438;6.978;2023-04-06T05:09:04;9.23;;;6.80;;
2338;SDS011;1180;51.438;6.978;2023-04-06T05:11:30;9.40;;;6.10;;
2338;SDS011;1180;51.438;6.978;2023-04-06T05:13:55;9.93;;;7.10;;
2338;SDS011;1180;51.438;6.978;2023-04-06T05:16:21;9.90;;;6.93;;
2338;SDS011;1180;51.438;6.978;2023-04-06T05:18:47;7.17;;;6.27;;
2338;SDS011;1180;51.438;6.978;2023-04-06T05:21:13;8.10;;;6.40;;
2338;SDS011;1180;51.438;6.978;2023-04-06T05:23:41;8.70;;;6.93;;
2338;SDS011;1180;51.438;6.978;2023-04-06T05:26:06;10.00;;;6.20;;
2338;SDS011;1180;51.438;6.978;2023-04-06T05:28:32;13.93;;;8.10;;
2338;SDS011;1180;51.438;6.978;2023-04-06T05:30:57;8.03;;;6.67;;
2338;SDS011;1180;51.438;6.978;2023-04-06T05:33:23;8.37;;;7.20;;
2338;SDS011;1180;51.438;6.978;2023-04-06T05:35:50;9.00;;;6.90;;
2338;SDS011;1180;51.438;6.978;2023-04-06T05:38:15;8.70;;;7.07;;
2338;SDS011;1180;51.438;6.978;2023-04-06T05:40:40;9.33;;;6.73;;
2338;SDS011;1180;51.438;6.978;2023-04-06T05:43:06;7.30;;;6.47;;
2338;SDS011;1180;51.438;6.978;2023-04-06T05:45:32;8.10;;;6.17;;
2338;SDS011;1180;51.438;6.978;2023-04-06T05:47:58;9.50;;;6.47;;
2338;SDS011;1180;51.438;6.978;2023-04-06T05:50:23;8.23;;;6.37;;
2338;SDS011;1180;51.438;6.978;2023-04-06T05:52:48;11.60;;;6.50;;
2338;SDS011;1180;51.438;6.978;2023-04-06T05:55:15;12.80;;;6.03;;
2338;SDS011;1180;51.438;6.978;2023-04-06T05:57:41;12.70;;;6.47;;
2338;SDS011;1180;51.438;6.978;2023-04-06T06:00:06;11.50;;;7.00;;
2338;SDS011;1180;51.438;6.978;2023-04-06T06:02:35;7.40;;;6.10;;
2338;SDS011;1180;51.438;6.978;2023-04-06T06:05:00;8.90;;;6.40;;
2338;SDS011;1180;51.438;6.978;2023-04-06T06:07:26;7.67;;;6.53;;
2338;SDS011;1180;51.438;6.978;2023-04-06T06:09:51;7.13;;;5.53;;
2338;SDS011;1180;51.438;6.978;2023-04-06T06:12:17;6.03;;;5.33;;
2338;SDS011;1180;51.438;6.978;2023-04-06T06:14:42;7.30;;;5.37;;
2338;SDS011;1180;51.438;6.978;2023-04-06T06:17:08;6.77;;;5.70;;
2338;SDS011;1180;51.438;6.978;2023-04-06T06:19:33;6.50;;;4.17;;
2338;SDS011;1180;51.438;6.978;2023-04-06T06:21:59;5.00;;;3.53;;
2338;SDS011;1180;51.438;6.978;2023-04-06T06:24:27;6.50;;;5.47;;
2338;SDS011;1180;51.438;6.978;2023-04-06T06:26:53;9.50;;;6.10;;
2338;SDS011;1180;51.438;6.978;2023-04-06T06:29:19;8.00;;;6.60;;
2338;SDS011;1180;51.438;6.978;2023-04-06T06:31:44;7.60;;;5.90;;
2338;SDS011;1180;51.438;6.978;2023-04-06T06:34:10;7.53;;;5.50;;
2338;SDS011;1180;51.438;6.978;2023-04-06T06:36:37;8.17;;;6.77;;
2338;SDS011;1180;51.438;6.978;2023-04-06T06:39:03;6.37;;;5.73;;
2338;SDS011;1180;51.438;6.978;2023-04-06T06:41:29;8.33;;;5.70;;
2338;SDS011;1180;51.438;6.978;2023-04-06T06:43:54;8.80;;;5.80;;
2338;SDS011;1180;51.438;6.978;2023-04-06T06:46:20;8.13;;;5.40;;
2338;SDS011;1180;51.438;6.978;2023-04-06T06:48:45;8.17;;;5.97;;
2338;SDS011;1180;51.438;6.978;2023-04-06T06:51:11;7.37;;;6.30;;
2338;SDS011;1180;51.438;6.978;2023-04-06T06:53:36;7.90;;;5.90;;
2338;SDS011;1180;51.438;6.978;2023-04-06T06:56:02;7.37;;;6.20;;
2338;SDS011;1180;51.438;6.978;2023-04-06T06:58:28;9.87;;;6.27;;
2338;SDS011;1180;51.438;6.978;2023-04-06T07:00:57;7.53;;;6.00;;
2338;SDS011;1180;51.438;6.978;2023-04-06T07:03:25;8.43;;;5.80;;
2338;SDS011;1180;51.438;6.978;2023-04-06T07:05:51;9.10;;;6.20;;
2338;SDS011;1180;51.438;6.978;2023-04-06T07:08:21;6.40;;;5.60;;
2338;SDS011;1180;51.438;6.978;2023-04-06T07:10:47;7.70;;;5.00;;
2338;SDS011;1180;51.438;6.978;2023-04-06T07:13:13;5.73;;;4.93;;
2338;SDS011;1180;51.438;6.978;2023-04-06T07:15:46;8.23;;;5.60;;
2338;SDS011;1180;51.438;6.978;2023-04-06T07:18:12;7.30;;;6.10;;
2338;SDS011;1180;51.438;6.978;2023-04-06T07:20:37;8.80;;;6.63;;
2338;SDS011;1180;51.438;6.978;2023-04-06T07:23:03;8.57;;;6.50;;
2338;SDS011;1180;51.438;6.978;2023-04-06T07:25:29;7.47;;;6.43;;
2338;SDS011;1180;51.438;6.978;2023-04-06T07:27:54;8.50;;;6.87;;
2338;SDS011;1180;51.438;6.978;2023-04-06T07:30:20;7.40;;;6.33;;
2338;SDS011;1180;51.438;6.978;2023-04-06T07:32:46;11.70;;;7.63;;
2338;SDS011;1180;51.438;6.978;2023-04-06T07:35:12;11.43;;;7.53;;
2338;SDS011;1180;51.438;6.978;2023-04-06T07:37:37;9.10;;;7.10;;
2338;SDS011;1180;51.438;6.978;2023-04-06T07:40:03;8.40;;;6.80;;
2338;SDS011;1180;51.438;6.978;2023-04-06T07:42:29;11.20;;;7.33;;
2338;SDS011;1180;51.438;6.978;2023-04-06T07:44:54;16.17;;;8.40;;
2338;SDS011;1180;51.438;6.978;2023-04-06T07:47:20;8.23;;;6.77;;
2338;SDS011;1180;51.438;6.978;2023-04-06T07:49:47;8.50;;;6.90;;
2338;SDS011;1180;51.438;6.978;2023-04-06T07:52:12;9.65;;;7.53;;
2338;SDS011;1180;51.438;6.978;2023-04-06T07:54:38;11.40;;;8.20;;
2338;SDS011;1180;51.438;6.978;2023-04-06T07:57:05;11.70;;;8.57;;
2338;SDS011;1180;51.438;6.978;2023-04-06T07:59:30;13.40;;;7.33;;
2338;SDS011;1180;51.438;6.978;2023-04-06T08:01:56;11.30;;;7.90;;
2338;SDS011;1180;51.438;6.978;2023-04-06T08:04:21;12.70;;;9.50;;
2338;SDS011;1180;51.438;6.978;2023-04-06T08:06:47;11.33;;;8.60;;
2338;SDS011;1180;51.438;6.978;2023-04-06T08:09:12;8.93;;;7.90;;
2338;SDS011;1180;51.438;6.978;2023-04-06T08:11:37;9.30;;;7.30;;
2338;SDS011;1180;51.438;6.978;2023-04-06T08:14:03;10.57;;;8.23;;
2338;SDS011;1180;51.438;6.978;2023-04-06T08:16:28;10.10;;;8.13;;
2338;SDS011;1180;51.438;6.978;2023-04-06T08:18:53;10.80;;;8.47;;
2338;SDS011;1180;51.438;6.978;2023-04-06T08:21:19;21.90;;;9.83;;
2338;SDS011;1180;51.438;6.978;2023-04-06T08:23:44;10.13;;;9.13;;
2338;SDS011;1180;51.438;6.978;2023-04-06T08:26:11;11.97;;;8.87;;
2338;SDS011;1180;51.438;6.978;2023-04-06T08:28:37;11.53;;;8.33;;
2338;SDS011;1180;51.438;6.978;2023-04-06T08:31:03;10.30;;;7.50;;
2338;SDS011;1180;51.438;6.978;2023-04-06T08:33:32;11.67;;;9.00;;
2338;SDS011;1180;51.438;6.978;2023-04-06T08:36:06;16.20;;;9.10;;
2338;SDS011;1180;51.438;6.978;2023-04-06T08:38:33;12.50;;;8.20;;
2338;SDS011;1180;51.438;6.978;2023-04-06T08:40:58;11.87;;;8.87;;
2338;SDS011;1180;51.438;6.978;2023-04-06T08:43:23;11.03;;;8.30;;
2338;SDS011;1180;51.438;6.978;2023-04-06T08:45:52;11.23;;;8.13;;
2338;SDS011;1180;51.438;6.978;2023-04-06T08:48:18;11.73;;;8.40;;
2338;SDS011;1180;51.438;6.978;2023-04-06T08:50:43;12.77;;;9.00;;
2338;SDS011;1180;51.438;6.978;2023-04-06T08:53:09;15.33;;;9.73;;
2338;SDS011;1180;51.438;6.978;2023-04-06T08:55:37;13.40;;;8.70;;
2338;SDS011;1180;51.438;6.978;2023-04-06T08:58:06;10.73;;;7.60;;
2338;SDS011;1180;51.438;6.978;2023-04-06T09:00:32;13.20;;;9.10;;
2338;SDS011;1180;51.438;6.978;2023-04-06T09:03:01;15.23;;;10.00;;
2338;SDS011;1180;51.438;6.978;2023-04-06T09:05:29;14.50;;;8.57;;
2338;SDS011;1180;51.438;6.978;2023-04-06T09:07:54;11.80;;;8.40;;
2338;SDS011;1180;51.438;6.978;2023-04-06T09:10:20;15.30;;;9.10;;
2338;SDS011;1180;51.438;6.978;2023-04-06T09:12:45;12.17;;;8.80;;
2338;SDS011;1180;51.438;6.978;2023-04-06T09:15:18;13.70;;;9.60;;
2338;SDS011;1180;51.438;6.978;2023-04-06T09:17:47;11.07;;;8.70;;
2338;SDS011;1180;51.438;6.978;2023-04-06T09:20:12;14.67;;;10.43;;
2338;SDS011;1180;51.438;6.978;2023-04-06T09:22:38;13.17;;;8.70;;
2338;SDS011;1180;51.438;6.978;2023-04-06T09:25:04;13.30;;;9.50;;
2338;SDS011;1180;51.438;6.978;2023-04-06T09:27:31;12.10;;;9.50;;
2338;SDS011;1180;51.438;6.978;2023-04-06T09:30:05;11.73;;;8.80;;
2338;SDS011;1180;51.438;6.978;2023-04-06T09:32:45;14.73;;;10.03;;
2338;SDS011;1180;51.438;6.978;2023-04-06T09:35:14;15.90;;;10.67;;
2338;SDS011;1180;51.438;6.978;2023-04-06T09:37:40;10.47;;;8.50;;
2338;SDS011;1180;51.438;6.978;2023-04-06T09:40:07;11.27;;;9.17;;
2338;SDS011;1180;51.438;6.978;2023-04-06T09:42:33;17.43;;;11.47;;
2338;SDS011;1180;51.438;6.978;2023-04-06T09:44:59;13.37;;;10.03;;
2338;SDS011;1180;51.438;6.978;2023-04-06T09:47:25;15.07;;;10.97;;
2338;SDS011;1180;51.438;6.978;2023-04-06T09:49:55;15.73;;;10.67;;
2338;SDS011;1180;51.438;6.978;2023-04-06T09:52:26;12.37;;;9.30;;
2338;SDS011;1180;51.438;6.978;2023-04-06T09:54:57;13.77;;;10.10;;
2338;SDS011;1180;51.438;6.978;2023-04-06T09:57:29;13.90;;;9.73;;
2338;SDS011;1180;51.438;6.978;2023-04-06T10:00:32;16.23;;;10.17;;
2338;SDS011;1180;51.438;6.978;2023-04-06T10:08:17;14.93;;;10.83;;
2338;SDS011;1180;51.438;6.978;2023-04-06T10:10:44;12.67;;;10.37;;
2338;SDS011;1180;51.438;6.978;2023-04-06T10:13:10;14.67;;;11.43;;
2338;SDS011;1180;51.438;6.978;2023-04-06T10:15:36;13.37;;;10.57;;
2338;SDS011;1180;51.438;6.978;2023-04-06T10:18:03;14.87;;;11.37;;
2338;SDS011;1180;51.438;6.978;2023-04-06T10:25:29;14.47;;;10.10;;
2338;SDS011;1180;51.438;6.978;2023-04-06T10:28:00;14.43;;;10.57;;
2338;SDS011;1180;51.438;6.978;2023-04-06T10:30:26;15.47;;;11.17;;
2338;SDS011;1180;51.438;6.978;2023-04-06T10:32:53;11.90;;;10.10;;
2338;SDS011;1180;51.438;6.978;2023-04-06T10:35:18;17.37;;;11.07;;
2338;SDS011;1180;51.438;6.978;2023-04-06T10:40:18;15.80;;;10.30;;
2338;SDS011;1180;51.438;6.978;2023-04-06T10:42:44;15.03;;;10.47;;
2338;SDS011;1180;51.438;6.978;2023-04-06T10:45:18;13.80;;;11.57;;
2338;SDS011;1180;51.438;6.978;2023-04-06T10:47:56;12.83;;;11.07;;
2338;SDS011;1180;51.438;6.978;2023-04-06T10:50:22;13.90;;;9.67;;
2338;SDS011;1180;51.438;6.978;2023-04-06T10:52:58;14.40;;;11.00;;
2338;SDS011;1180;51.438;6.978;2023-04-06T10:55:27;20.50;;;12.40;;
2338;SDS011;1180;51.438;6.978;2023-04-06T10:57:54;16.17;;;10.63;;
2338;SDS011;1180;51.438;6.978;2023-04-06T11:00:19;17.13;;;11.57;;
2338;SDS011;1180;51.438;6.978;2023-04-06T11:02:45;14.63;;;11.20;;
2338;SDS011;1180;51.438;6.978;2023-04-06T11:05:11;14.60;;;10.30;;
2338;SDS011;1180;51.438;6.978;2023-04-06T11:07:38;20.10;;;11.50;;
2338;SDS011;1180;51.438;6.978;2023-04-06T11:10:05;15.37;;;9.90;;
2338;SDS011;1180;51.438;6.978;2023-04-06T11:12:31;16.20;;;11.90;;
2338;SDS011;1180;51.438;6.978;2023-04-06T11:14:57;15.63;;;11.30;;
2338;SDS011;1180;51.438;6.978;2023-04-06T11:17:29;13.87;;;10.07;;
2338;SDS011;1180;51.438;6.978;2023-04-06T11:19:56;13.40;;;9.97;;
2338;SDS011;1180;51.438;6.978;2023-04-06T11:22:22;16.97;;;11.77;;
2338;SDS011;1180;51.438;6.978;2023-04-06T11:24:49;15.90;;;10.73;;
2338;SDS011;1180;51.438;6.978;2023-04-06T11:27:14;13.43;;;9.63;;
2338;SDS011;1180;51.438;6.978;2023-04-06T11:29:41;18.50;;;10.63;;
2338;SDS011;1180;51.438;6.978;2023-04-06T11:32:07;16.57;;;10.90;;
2338;SDS011;1180;51.438;6.978;2023-04-06T11:34:36;19.27;;;10.90;;
2338;SDS011;1180;51.438;6.978;2023-04-06T11:37:04;16.10;;;11.10;;
2338;SDS011;1180;51.438;6.978;2023-04-06T11:39:37;14.73;;;10.13;;
2338;SDS011;1180;51.438;6.978;2023-04-06T11:42:04;18.93;;;11.93;;
2338;SDS011;1180;51.438;6.978;2023-04-06T11:44:39;13.87;;;9.63;;
2338;SDS011;1180;51.438;6.978;2023-04-06T11:47:10;15.30;;;10.67;;
2338;SDS011;1180;51.438;6.978;2023-04-06T11:49:37;15.67;;;10.87;;
2338;SDS011;1180;51.438;6.978;2023-04-06T11:52:13;19.03;;;11.23;;
2338;SDS011;1180;51.438;6.978;2023-04-06T11:54:44;18.10;;;11.13;;
2338;SDS011;1180;51.438;6.978;2023-04-06T11:57:10;16.90;;;12.23;;
2338;SDS011;1180;51.438;6.978;2023-04-06T11:59:36;15.00;;;10.93;;
2338;SDS011;1180;51.438;6.978;2023-04-06T12:02:02;14.80;;;11.10;;
2338;SDS011;1180;51.438;6.978;2023-04-06T12:04:28;17.60;;;11.40;;
2338;SDS011;1180;51.438;6.978;2023-04-06T12:06:54;15.50;;;10.43;;
2338;SDS011;1180;51.438;6.978;2023-04-06T12:09:21;15.60;;;11.27;;
2338;SDS011;1180;51.438;6.978;2023-04-06T12:11:46;13.40;;;11.20;;
2338;SDS011;1180;51.438;6.978;2023-04-06T12:14:12;14.50;;;10.13;;
2338;SDS011;1180;51.438;6.978;2023-04-06T12:16:38;15.00;;;11.70;;
2338;SDS011;1180;51.438;6.978;2023-04-06T12:19:03;14.17;;;11.03;;
2338;SDS011;1180;51.438;6.978;2023-04-06T12:21:29;17.43;;;12.70;;
2338;SDS011;1180;51.438;6.978;2023-04-06T12:23:56;17.07;;;11.67;;
2338;SDS011;1180;51.438;6.978;2023-04-06T12:26:22;15.10;;;11.90;;
2338;SDS011;1180;51.438;6.978;2023-04-06T12:28:50;16.47;;;12.67;;
2338;SDS011;1180;51.438;6.978;2023-04-06T12:31:19;15.63;;;12.23;;
2338;SDS011;1180;51.438;6.978;2023-04-06T12:33:46;13.27;;;11.07;;
2338;SDS011;1180;51.438;6.978;2023-04-06T12:36:16;16.20;;;12.03;;
2338;SDS011;1180;51.438;6.978;2023-04-06T12:38:44;18.10;;;13.07;;
2338;SDS011;1180;51.438;6.978;2023-04-06T12:41:13;15.07;;;12.87;;
2338;SDS011;1180;51.438;6.978;2023-04-06T12:43:40;15.67;;;12.10;;
2338;SDS011;1180;51.438;6.978;2023-04-06T12:46:06;15.10;;;11.57;;
2338;SDS011;1180;51.438;6.978;2023-04-06T12:48:32;17.43;;;12.30;;
2338;SDS011;1180;51.438;6.978;2023-04-06T12:50:58;15.03;;;11.90;;
2338;SDS011;1180;51.438;6.978;2023-04-06T12:53:25;17.43;;;11.70;;
2338;SDS011;1180;51.438;6.978;2023-04-06T12:55:52;17.07;;;12.73;;
2338;SDS011;1180;51.438;6.978;2023-04-06T12:58:19;17.60;;;10.50;;
2338;SDS011;1180;51.438;6.978;2023-04-06T13:00:45;12.40;;;10.47;;
2338;SDS011;1180;51.438;6.978;2023-04-06T13:03:11;13.93;;;11.33;;
2338;SDS011;1180;51.438;6.978;2023-04-06T13:05:43;15.73;;;12.23;;
2338;SDS011;1180;51.438;6.978;2023-04-06T13:08:09;14.20;;;9.93;;
2338;SDS011;1180;51.438;6.978;2023-04-06T13:10:35;14.17;;;10.87;;
2338;SDS011;1180;51.438;6.978;2023-04-06T13:13:00;11.80;;;10.27;;
2338;SDS011;1180;51.438;6.978;2023-04-06T13:15:26;13.73;;;10.50;;
2338;SDS011;1180;51.438;6.978;2023-04-06T13:17:51;16.27;;;10.93;;
2338;SDS011;1180;51.438;6.978;2023-04-06T13:20:18;14.03;;;10.50;;
2338;SDS011;1180;51.438;6.978;2023-04-06T13:22:43;15.13;;;10.53;;
2338;SDS011;1180;51.438;6.978;2023-04-06T13:25:09;17.30;;;12.00;;
2338;SDS011;1180;51.438;6.978;2023-04-06T13:27:35;12.53;;;9.00;;
2338;SDS011;1180;51.438;6.978;2023-04-06T13:30:01;13.17;;;9.97;;
2338;SDS011;1180;51.438;6.978;2023-04-06T13:32:28;12.83;;;9.50;;
2338;SDS011;1180;51.438;6.978;2023-04-06T13:34:54;13.37;;;9.73;;
2338;SDS011;1180;51.438;6.978;2023-04-06T13:37:20;11.93;;;9.47;;
2338;SDS011;1180;51.438;6.978;2023-04-06T13:39:45;13.50;;;9.30;;
2338;SDS011;1180;51.438;6.978;2023-04-06T13:42:11;11.03;;;8.97;;
2338;SDS011;1180;51.438;6.978;2023-04-06T13:44:36;14.43;;;9.50;;
2338;SDS011;1180;51.438;6.978;2023-04-06T13:47:02;10.57;;;8.00;;
2338;SDS011;1180;51.438;6.978;2023-04-06T13:49:28;11.07;;;9.20;;
2338;SDS011;1180;51.438;6.978;2023-04-06T13:51:53;11.13;;;8.37;;
2338;SDS011;1180;51.438;6.978;2023-04-06T13:54:19;9.97;;;8.90;;
2338;SDS011;1180;51.438;6.978;2023-04-06T13:56:45;12.27;;;9.33;;
2338;SDS011;1180;51.438;6.978;2023-04-06T13:59:11;12.47;;;9.13;;
2338;SDS011;1180;51.438;6.978;2023-04-06T14:01:37;13.00;;;8.70;;
2338;SDS011;1180;51.438;6.978;2023-04-06T14:04:02;11.40;;;7.90;;
2338;SDS011;1180;51.438;6.978;2023-04-06T14:06:28;12.03;;;8.37;;
2338;SDS011;1180;51.438;6.978;2023-04-06T14:08:54;9.57;;;7.90;;
2338;SDS011;1180;51.438;6.978;2023-04-06T14:11:20;11.17;;;8.37;;
2338;SDS011;1180;51.438;6.978;2023-04-06T14:13:47;10.43;;;9.33;;
2338;SDS011;1180;51.438;6.978;2023-04-06T14:16:12;11.20;;;7.80;;
2338;SDS011;1180;51.438;6.978;2023-04-06T14:18:38;11.80;;;8.10;;
2338;SDS011;1180;51.438;6.978;2023-04-06T14:21:04;10.43;;;8.23;;
2338;SDS011;1180;51.438;6.978;2023-04-06T14:23:30;11.90;;;7.63;;
2338;SDS011;1180;51.438;6.978;2023-04-06T14:26:03;9.20;;;7.83;;
2338;SDS011;1180;51.438;6.978;2023-04-06T14:28:30;12.03;;;8.10;;
2338;SDS011;1180;51.438;6.978;2023-04-06T14:30:58;9.00;;;7.67;;
2338;SDS011;1180;51.438;6.978;2023-04-06T14:33:25;9.20;;;7.40;;
2338;SDS011;1180;51.438;6.978;2023-04-06T14:35:55;11.17;;;7.90;;
2338;SDS011;1180;51.438;6.978;2023-04-06T14:38:21;9.27;;;7.33;;
2338;SDS011;1180;51.438;6.978;2023-04-06T14:40:47;7.60;;;6.73;;
2338;SDS011;1180;51.438;6.978;2023-04-06T14:43:13;9.33;;;7.20;;
2338;SDS011;1180;51.438;6.978;2023-04-06T14:45:40;12.33;;;7.30;;
2338;SDS011;1180;51.438;6.978;2023-04-06T14:48:05;8.17;;;6.80;;
2338;SDS011;1180;51.438;6.978;2023-04-06T14:50:32;7.77;;;6.93;;
2338;SDS011;1180;51.438;6.978;2023-04-06T14:52:58;8.87;;;7.23;;
2338;SDS011;1180;51.438;6.978;2023-04-06T14:55:25;8.07;;;6.90;;
2338;SDS011;1180;51.438;6.978;2023-04-06T14:57:50;9.77;;;7.90;;
2338;SDS011;1180;51.438;6.978;2023-04-06T15:00:16;8.87;;;7.97;;
2338;SDS011;1180;51.438;6.978;2023-04-06T15:02:41;10.37;;;7.53;;
2338;SDS011;1180;51.438;6.978;2023-04-06T15:05:08;9.20;;;7.40;;
2338;SDS011;1180;51.438;6.978;2023-04-06T15:07:34;8.77;;;7.47;;
2338;SDS011;1180;51.438;6.978;2023-04-06T15:10:00;8.73;;;6.80;;